Etusivu
METAR-TAF:

METAR-TAF

Lentoasemat :

Clovis, New Mexico, Yhdysvallat

Leveyspiiri: 34-26N, Pituuspiiri: 103-05W, korkeus merenpinnasta: 1284 m

Tämänhetkinen sää

Tämä raportti tehtiin 53 minuuttia sitten, kello 03.56 UTC
Tuuli 13 kn kaakosta
Lämpötila 22°C
Kosteus 38%
Ilmanpaine 1023 hPa
Näkyvyys: 16.1 km
selkeää

METAR: KCVN 310356Z AUTO 14013KT 10SM CLR 22/07 A3020 RMK AO2 SLP184 T02220072

Aika: 22:49 (04:49 UTC)


TAF: puuttuu

Säähavainnot ja -ennusteet yli 4000 lentoasemalta (METAR- ja TAF-raportit).

Käytössä olevat sääasemat on merkitty karttaan keltaisilla ja punaisilla pisteillä.

Aseta hiiri pisteen päälle nähdäksesi sääaseman nimen.

Klikkaa sitten nähdäksesi säähavainnot ja -ennusteet.

Kartan vaihtaminen: klikkaa mustalla rastilla varustettuja vihreitä pisteitä, niin voit zoomata sisään; viivalla varustettua vihreää pistettä, niin voit zoomata ulos tai vihreitä nuolia, niin pääset viereisille kartoille.


METAR-TAF: